Time;durP1;ratioP1;P1;durP2;ratioP2;P2;SDS_P1;SDS_P2;PMS_P1;PMS_P2;Temp;Humidity;BMP_temperature;BMP_pressure;BME280_temperature;BME280_humidity;BME280_pressure;Samples;Min_cycle;Max_cycle;Signal;HPM_P1;HPM_P2
2022/04/01 00:01:00;;;;;;;4.88;1.50;;;0.40;99.90;;;;;;5043143;28;20196;-75
2022/04/01 00:03:26;;;;;;;5.30;1.55;;;0.40;99.90;;;;;;5029589;28;20045;-75
2022/04/01 00:05:52;;;;;;;4.70;1.88;;;0.50;99.90;;;;;;5031527;28;20044;-75
2022/04/01 00:08:18;;;;;;;3.30;1.83;;;0.40;99.90;;;;;;5048795;28;20397;-74
2022/04/01 00:10:43;;;;;;;3.53;1.90;;;0.40;99.90;;;;;;5034896;28;20057;-77
2022/04/01 00:13:09;;;;;;;3.47;1.60;;;0.50;99.90;;;;;;5042711;28;20537;-75
2022/04/01 00:15:35;;;;;;;2.97;1.80;;;0.50;99.90;;;;;;5046451;28;20075;-74
2022/04/01 00:18:03;;;;;;;4.28;1.75;;;0.50;99.90;;;;;;5066396;28;20081;-76
2022/04/01 00:20:29;;;;;;;2.47;1.35;;;0.50;99.90;;;;;;5032400;28;20045;-75
2022/04/01 00:22:55;;;;;;;3.35;1.63;;;0.60;99.90;;;;;;5031074;28;20091;-74
2022/04/01 00:25:21;;;;;;;4.40;1.60;;;0.50;99.90;;;;;;5044539;28;20104;-76
2022/04/01 00:27:47;;;;;;;2.78;1.60;;;0.50;99.90;;;;;;5032114;28;20083;-76
2022/04/01 00:30:13;;;;;;;3.35;1.60;;;0.40;99.90;;;;;;5055791;28;20041;-75
2022/04/01 00:32:38;;;;;;;2.53;1.15;;;0.70;99.90;;;;;;5025223;28;20045;-78
2022/04/01 00:35:05;;;;;;;2.92;1.67;;;0.40;99.90;;;;;;5042694;28;20048;-76
2022/04/01 00:37:31;;;;;;;2.28;1.33;;;0.30;99.90;;;;;;5041054;28;20040;-75
2022/04/01 00:39:57;;;;;;;4.35;2.30;;;0.40;99.90;;;;;;5041407;28;20040;-78
2022/04/01 00:42:23;;;;;;;4.35;2.13;;;0.30;99.90;;;;;;5041345;28;20048;-76
2022/04/01 00:44:49;;;;;;;3.03;1.50;;;0.30;99.90;;;;;;5026411;28;20212;-76
2022/04/01 00:47:15;;;;;;;3.55;1.50;;;1.10;99.90;;;;;;5048471;28;20072;-76
2022/04/01 00:49:45;;;;;;;2.70;1.38;;;0.30;99.90;;;;;;5072844;28;20033;-77
2022/04/01 00:52:15;;;;;;;4.15;1.60;;;0.70;99.90;;;;;;5066158;28;20091;-74
2022/04/01 00:54:41;;;;;;;2.63;1.40;;;0.30;99.90;;;;;;5050196;28;20061;-75
2022/04/01 00:57:08;;;;;;;3.25;1.30;;;0.30;99.90;;;;;;5054170;28;20080;-76
2022/04/01 00:59:34;;;;;;;2.85;1.40;;;0.30;99.90;;;;;;5059451;28;20078;-75
2022/04/01 01:02:00;;;;;;;2.20;1.23;;;0.30;99.90;;;;;;5040971;28;20045;-76
2022/04/01 01:04:27;;;;;;;2.40;1.42;;;0.40;99.90;;;;;;5025840;28;20059;-73
2022/04/01 01:06:57;;;;;;;2.78;1.40;;;0.70;99.90;;;;;;5040790;28;20161;-77
2022/04/01 01:09:25;;;;;;;2.80;1.30;;;0.30;99.90;;;;;;5058458;28;20049;-76
2022/04/01 01:11:52;;;;;;;2.40;1.50;;;0.40;99.90;;;;;;5041141;28;20045;-76
2022/04/01 01:14:28;;;;;;;2.70;1.30;;;0.30;99.90;;;;;;5077556;28;20041;-74
2022/04/01 01:16:56;;;;;;;2.60;1.20;;;0.30;99.90;;;;;;5054965;28;20045;-74
2022/04/01 01:19:22;;;;;;;2.50;1.30;;;0.30;99.90;;;;;;5046428;28;20051;-76
2022/04/01 01:21:51;;;;;;;4.53;1.35;;;0.30;99.90;;;;;;5041845;28;20064;-74
2022/04/01 01:24:17;;;;;;;2.35;1.30;;;0.30;99.90;;;;;;5056785;28;20088;-74
2022/04/01 01:26:48;;;;;;;3.47;1.67;;;0.30;99.90;;;;;;5032328;28;20109;-73
2022/04/01 01:29:18;;;;;;;2.78;1.40;;;0.30;99.90;;;;;;5056687;28;20120;-75
2022/04/01 01:31:46;;;;;;;2.83;1.38;;;0.30;99.90;;;;;;5040576;28;20037;-77
2022/04/01 01:34:12;;;;;;;3.30;1.45;;;0.40;99.90;;;;;;5057622;28;20087;-76
2022/04/01 01:36:38;;;;;;;2.95;1.50;;;0.40;99.90;;;;;;5040442;28;20041;-75
2022/04/01 01:39:04;;;;;;;4.28;2.50;;;0.50;99.90;;;;;;5041391;28;20075;-75
2022/04/01 01:41:30;;;;;;;2.33;1.52;;;0.40;99.90;;;;;;5023370;28;20602;-74
2022/04/01 01:43:56;;;;;;;3.33;1.50;;;0.40;99.90;;;;;;5041196;28;20041;-76
2022/04/01 01:46:23;;;;;;;2.88;1.50;;;0.40;99.90;;;;;;5048754;28;20044;-77
2022/04/01 01:48:49;;;;;;;3.50;1.75;;;1.00;99.90;;;;;;5057077;28;20045;-78
2022/04/01 01:56:44;;;;;;;5.03;2.40;;;0.90;99.90;;;;;;5043215;28;20045;-73
2022/04/01 01:59:11;;;;;;;3.10;1.67;;;0.40;99.90;;;;;;5040092;28;20041;-74
2022/04/01 02:01:38;;;;;;;3.00;1.50;;;0.60;99.90;;;;;;5056824;28;20112;-74
2022/04/01 02:04:05;;;;;;;2.35;1.40;;;0.40;99.90;;;;;;5073494;28;20096;-75
2022/04/01 02:06:32;;;;;;;2.95;1.65;;;0.40;99.90;;;;;;5039959;28;20559;-75
2022/04/01 02:08:59;;;;;;;3.17;1.65;;;0.40;99.90;;;;;;5024728;28;20049;-75
2022/04/01 02:11:26;;;;;;;3.95;1.50;;;0.40;99.90;;;;;;5044163;28;20045;-75
2022/04/01 02:13:52;;;;;;;4.47;1.70;;;0.40;99.90;;;;;;5040284;28;20045;-75
2022/04/01 02:16:18;;;;;;;4.25;1.50;;;0.60;99.90;;;;;;5024510;28;20056;-75
2022/04/01 02:18:44;;;;;;;2.80;1.52;;;0.50;99.90;;;;;;5056226;28;20045;-75
2022/04/01 02:21:11;;;;;;;2.83;1.35;;;0.40;99.90;;;;;;5039787;28;20048;-74
2022/04/01 02:23:42;;;;;;;3.35;1.50;;;0.60;99.90;;;;;;5056416;28;20132;-75
2022/04/01 02:26:08;;;;;;;5.68;1.50;;;0.40;99.90;;;;;;5040829;28;20045;-74
2022/04/01 02:28:37;;;;;;;2.97;1.77;;;0.40;99.90;;;;;;5039317;28;20052;-75
2022/04/01 02:31:08;;;;;;;3.70;1.23;;;0.40;99.90;;;;;;5056912;28;20059;-75
2022/04/01 02:33:35;;;;;;;4.18;1.88;;;0.40;99.90;;;;;;5039728;28;20052;-76
2022/04/01 02:36:10;;;;;;;4.10;1.27;;;0.50;99.90;;;;;;5039858;28;20535;-72
2022/04/01 02:38:36;;;;;;;3.28;1.52;;;0.40;99.90;;;;;;5039969;28;20056;-75
2022/04/01 02:41:02;;;;;;;3.55;1.45;;;0.40;99.90;;;;;;5025390;28;20094;-75
2022/04/01 02:43:28;;;;;;;3.72;1.48;;;0.40;99.90;;;;;;5040544;28;20060;-77
2022/04/01 02:45:54;;;;;;;2.65;1.35;;;0.40;99.90;;;;;;5055508;28;20135;-77
2022/04/01 02:48:20;;;;;;;2.60;1.42;;;0.40;99.90;;;;;;5040034;28;20477;-80
2022/04/01 02:50:47;;;;;;;3.67;1.60;;;0.40;99.90;;;;;;5039536;28;20559;-75
2022/04/01 02:53:15;;;;;;;2.47;1.13;;;0.60;99.90;;;;;;5039967;28;20524;-76
2022/04/01 02:55:41;;;;;;;3.35;1.70;;;0.40;99.90;;;;;;5056738;28;20134;-74
2022/04/01 02:58:07;;;;;;;3.88;1.40;;;0.40;99.90;;;;;;5039060;28;20053;-77
2022/04/01 03:00:34;;;;;;;3.50;1.30;;;0.40;99.90;;;;;;5028336;28;20045;-75
2022/04/01 03:03:00;;;;;;;5.07;1.67;;;0.40;99.90;;;;;;5052846;28;20058;-75
2022/04/01 03:05:27;;;;;;;3.92;1.40;;;0.50;99.90;;;;;;5023341;28;20526;-80
2022/04/01 03:07:53;;;;;;;3.13;1.30;;;0.40;99.90;;;;;;5039273;28;20053;-76
2022/04/01 03:10:23;;;;;;;2.88;1.77;;;0.40;99.90;;;;;;5039096;28;20075;-78
2022/04/01 03:12:50;;;;;;;2.47;1.70;;;0.40;99.90;;;;;;5056667;28;20048;-75
2022/04/01 03:15:17;;;;;;;2.60;1.30;;;0.80;99.90;;;;;;5059565;28;20040;-76
2022/04/01 03:17:43;;;;;;;3.67;1.45;;;0.30;99.90;;;;;;5036738;28;20044;-76
2022/04/01 03:20:13;;;;;;;2.65;1.50;;;0.40;99.90;;;;;;5023316;28;20029;-75
2022/04/01 03:22:45;;;;;;;3.45;1.60;;;0.30;99.90;;;;;;5046592;28;20052;-76
2022/04/01 03:25:14;;;;;;;2.15;1.10;;;0.60;99.90;;;;;;5041215;28;20096;-75
2022/04/01 03:27:40;;;;;;;3.30;1.52;;;0.30;99.90;;;;;;5027308;28;20041;-75
2022/04/01 03:30:09;;;;;;;4.30;1.70;;;1.00;99.90;;;;;;5024110;28;20136;-75
2022/04/01 03:32:39;;;;;;;3.38;1.35;;;0.30;99.90;;;;;;5039047;28;20055;-74
2022/04/01 03:35:14;;;;;;;3.83;1.27;;;0.50;99.90;;;;;;5039711;28;20079;-75
2022/04/01 03:37:42;;;;;;;5.33;1.77;;;0.30;99.90;;;;;;5042659;28;20045;-76
2022/04/01 03:40:08;;;;;;;4.45;1.50;;;0.30;99.90;;;;;;5039198;28;20053;-75
2022/04/01 03:42:34;;;;;;;3.08;1.50;;;-0.20;99.90;;;;;;5022817;28;20053;-75
2022/04/01 03:45:03;;;;;;;2.72;1.40;;;0.30;99.90;;;;;;5042062;28;20118;-75
2022/04/01 03:47:54;;;;;;;2.90;1.15;;;0.80;99.90;;;;;;5065198;28;20089;-74
2022/04/01 03:50:34;;;;;;;2.05;1.38;;;0.30;99.90;;;;;;5062913;28;20174;-75
2022/04/01 03:53:09;;;;;;;3.70;1.30;;;0.30;99.90;;;;;;5091078;28;20425;-76
2022/04/01 03:55:41;;;;;;;5.60;1.42;;;0.20;99.90;;;;;;5044901;28;20048;-74
2022/04/01 03:58:09;;;;;;;2.20;1.38;;;0.30;99.90;;;;;;5036560;28;20395;-73
2022/04/01 04:00:36;;;;;;;2.38;1.30;;;0.30;99.90;;;;;;5059435;28;20040;-74
2022/04/01 04:03:10;;;;;;;2.63;1.40;;;0.30;99.90;;;;;;5035929;28;20037;-74
2022/04/01 04:05:37;;;;;;;3.70;1.20;;;0.40;99.90;;;;;;5056906;28;20492;-76
2022/04/01 04:08:07;;;;;;;15.57;1.77;;;0.70;99.90;;;;;;5025912;28;20036;-74
2022/04/01 04:10:34;;;;;;;3.20;1.52;;;0.40;99.90;;;;;;5043418;28;20084;-75
2022/04/01 04:13:06;;;;;;;3.17;1.40;;;0.40;99.90;;;;;;5042724;28;20055;-75
2022/04/01 04:16:09;;;;;;;3.22;1.27;;;0.50;99.90;;;;;;5046898;28;20491;-74
2022/04/01 04:18:47;;;;;;;2.67;1.40;;;0.50;99.90;;;;;;5059960;28;20049;-75
2022/04/01 04:21:26;;;;;;;3.20;1.30;;;0.50;99.90;;;;;;5042391;28;20059;-75
2022/04/01 04:23:56;;;;;;;3.83;1.88;;;0.60;99.90;;;;;;5041147;28;20119;-76
2022/04/01 04:26:31;;;;;;;3.58;1.52;;;0.60;99.90;;;;;;5043932;28;20513;-74
2022/04/01 04:29:25;;;;;;;2.72;1.30;;;0.60;99.90;;;;;;5055404;28;20045;-75
2022/04/01 04:32:04;;;;;;;2.38;1.17;;;0.60;99.90;;;;;;5060725;28;20049;-76
2022/04/01 04:34:44;;;;;;;5.22;1.50;;;0.70;99.90;;;;;;5058897;28;20083;-74
2022/04/01 04:37:11;;;;;;;3.90;1.10;;;0.70;99.90;;;;;;5043362;28;20591;-75
2022/04/01 04:39:38;;;;;;;4.82;1.10;;;0.90;99.90;;;;;;5058921;28;20520;-74
2022/04/01 04:42:05;;;;;;;3.65;1.10;;;0.70;99.90;;;;;;5041253;28;20040;-74
2022/04/01 04:44:31;;;;;;;3.30;1.75;;;0.80;99.90;;;;;;5071411;28;20037;-75
2022/04/01 04:46:58;;;;;;;2.85;1.30;;;0.80;99.90;;;;;;5025800;28;20109;-74
2022/04/01 04:49:27;;;;;;;2.53;1.40;;;0.80;99.90;;;;;;5041449;28;20057;-74
2022/04/01 04:51:54;;;;;;;4.70;1.60;;;0.80;99.90;;;;;;5066018;28;20049;-76
2022/04/01 04:54:21;;;;;;;2.85;1.10;;;0.80;99.90;;;;;;5055193;28;20049;-76
2022/04/01 04:56:49;;;;;;;2.55;1.45;;;0.80;99.90;;;;;;5046091;28;20049;-76
2022/04/01 04:59:19;;;;;;;3.42;1.25;;;0.50;99.90;;;;;;5035501;28;20049;-75
2022/04/01 05:02:01;;;;;;;3.13;1.38;;;0.90;99.90;;;;;;5038317;28;20048;-76
2022/04/01 05:05:02;;;;;;;2.75;1.38;;;0.90;99.90;;;;;;5027573;28;20049;-74
2022/04/01 05:07:50;;;;;;;4.35;1.73;;;0.90;99.90;;;;;;5040622;28;20071;-78
2022/04/01 05:10:21;;;;;;;3.80;1.88;;;0.90;99.90;;;;;;5057438;28;20455;-75
2022/04/01 05:12:57;;;;;;;4.57;1.70;;;1.20;99.90;;;;;;5041612;28;20044;-76
2022/04/01 05:15:36;;;;;;;2.88;1.45;;;1.10;99.90;;;;;;5040383;28;20041;-75
2022/04/01 05:18:12;;;;;;;5.10;2.03;;;0.90;99.90;;;;;;5051871;28;20540;-77
2022/04/01 05:20:46;;;;;;;2.53;1.40;;;0.90;99.90;;;;;;5041222;28;20036;-76
2022/04/01 05:23:20;;;;;;;3.63;1.42;;;0.70;99.90;;;;;;5057356;28;20150;-75
2022/04/01 05:25:58;;;;;;;5.80;1.70;;;0.90;99.90;;;;;;5041035;28;20055;-75
2022/04/01 05:28:30;;;;;;;3.10;1.60;;;0.90;99.90;;;;;;5068279;28;20072;-76
2022/04/01 05:31:13;;;;;;;4.22;1.77;;;0.90;99.90;;;;;;5045818;28;20045;-77
2022/04/01 05:33:50;;;;;;;2.88;1.42;;;1.00;99.90;;;;;;5045080;28;20048;-74
2022/04/01 05:36:17;;;;;;;4.68;1.58;;;1.00;99.90;;;;;;5058547;28;20131;-75
2022/04/01 05:38:44;;;;;;;2.13;1.25;;;0.90;99.90;;;;;;5057964;28;20052;-75
2022/04/01 05:41:10;;;;;;;3.75;1.42;;;1.00;99.90;;;;;;5091480;28;20037;-76
2022/04/01 05:43:38;;;;;;;3.55;1.50;;;1.10;99.90;;;;;;5057595;28;20032;-75
2022/04/01 05:46:04;;;;;;;3.05;1.35;;;1.00;99.90;;;;;;5049247;28;20136;-75
2022/04/01 05:48:34;;;;;;;2.50;1.30;;;1.00;99.90;;;;;;5040058;28;20595;-76
2022/04/01 05:51:04;;;;;;;2.88;1.55;;;1.10;99.90;;;;;;5040631;28;20065;-75
2022/04/01 05:53:32;;;;;;;3.97;1.60;;;1.10;99.90;;;;;;5040033;28;20052;-77
2022/04/01 05:55:59;;;;;;;2.60;1.33;;;1.10;99.90;;;;;;5050220;28;20586;-74
2022/04/01 05:58:26;;;;;;;3.60;1.50;;;1.10;99.90;;;;;;5039953;28;20101;-76
2022/04/01 06:01:10;;;;;;;2.55;1.50;;;1.10;99.90;;;;;;5048020;28;20059;-75
2022/04/01 06:03:51;;;;;;;2.15;1.20;;;1.10;99.90;;;;;;5050567;28;20491;-75
2022/04/01 06:06:25;;;;;;;2.53;1.30;;;1.10;99.90;;;;;;5039923;28;20049;-75
2022/04/01 06:09:21;;;;;;;4.45;1.60;;;1.50;99.90;;;;;;5040831;28;20037;-75
2022/04/01 06:12:05;;;;;;;4.60;1.55;;;1.10;99.90;;;;;;5029171;28;20094;-74
2022/04/01 06:14:50;;;;;;;3.30;1.45;;;1.20;99.90;;;;;;5039465;28;20085;-76
2022/04/01 06:17:31;;;;;;;2.70;1.10;;;1.20;99.90;;;;;;5045767;28;20493;-74
2022/04/01 06:20:01;;;;;;;4.72;1.15;;;1.20;99.90;;;;;;5056181;28;20095;-75
2022/04/01 06:22:33;;;;;;;1.67;0.80;;;1.20;99.90;;;;;;5038539;28;20515;-77
2022/04/01 06:25:15;;;;;;;2.10;0.80;;;1.20;99.90;;;;;;5056235;28;20052;-77
2022/04/01 06:27:42;;;;;;;1.40;0.90;;;1.30;99.90;;;;;;5024427;28;20623;-79
2022/04/01 06:30:11;;;;;;;1.45;0.80;;;1.30;99.90;;;;;;5074603;28;20128;-75
2022/04/01 06:33:18;;;;;;;1.88;0.80;;;1.30;99.90;;;;;;5042207;28;20199;-76
2022/04/01 06:35:59;;;;;;;3.50;0.95;;;1.30;99.90;;;;;;5040007;28;20061;-75
2022/04/01 06:38:32;;;;;;;2.60;0.90;;;1.40;99.90;;;;;;5039975;28;20069;-76
2022/04/01 06:41:19;;;;;;;2.22;0.80;;;1.40;99.90;;;;;;5041836;28;20071;-76
2022/04/01 06:43:45;;;;;;;;;;;1.40;99.90;;;;;;5042672;28;20423;-76
2022/04/01 06:46:11;;;;;;;2.23;0.87;;;1.40;99.90;;;;;;5060880;28;19925;-74
2022/04/01 06:48:38;;;;;;;1.80;0.80;;;1.40;99.90;;;;;;5039789;28;20855;-74
2022/04/01 06:51:03;;;;;;;1.52;0.60;;;1.40;99.90;;;;;;5039766;28;20041;-75
2022/04/01 06:53:29;;;;;;;1.80;0.90;;;1.50;99.90;;;;;;5039146;28;20090;-75
2022/04/01 06:55:55;;;;;;;2.78;0.90;;;1.50;99.90;;;;;;5041935;28;20052;-74
2022/04/01 06:58:26;;;;;;;2.17;0.90;;;1.60;99.90;;;;;;5039791;28;20175;-75
2022/04/01 07:00:52;;;;;;;1.67;0.90;;;1.60;99.90;;;;;;5039841;28;20040;-75
2022/04/01 07:03:18;;;;;;;2.80;1.17;;;1.70;99.90;;;;;;5050314;28;20080;-75
2022/04/01 07:05:44;;;;;;;2.45;1.08;;;2.30;99.90;;;;;;5032611;28;20041;-74
2022/04/01 07:08:11;;;;;;;2.88;1.40;;;1.70;99.90;;;;;;5036963;28;20767;-74
2022/04/01 07:10:38;;;;;;;1.90;1.10;;;1.80;99.90;;;;;;5038277;28;20053;-75
2022/04/01 07:13:04;;;;;;;3.80;1.17;;;1.80;99.90;;;;;;5039845;28;20583;-74
2022/04/01 07:15:30;;;;;;;3.97;1.05;;;1.80;99.90;;;;;;5028643;28;20056;-75
2022/04/01 07:17:56;;;;;;;1.92;0.90;;;1.90;99.90;;;;;;5048998;28;20076;-74
2022/04/01 07:20:22;;;;;;;1.85;0.93;;;2.10;99.90;;;;;;5041949;28;20052;-76
2022/04/01 07:22:48;;;;;;;2.40;1.30;;;1.80;99.90;;;;;;5040062;28;20041;-74
2022/04/01 07:25:14;;;;;;;2.50;1.20;;;1.90;99.90;;;;;;5070751;28;20481;-74
2022/04/01 07:27:40;;;;;;;3.60;1.30;;;2.00;99.90;;;;;;5053750;28;20045;-74
2022/04/01 07:30:08;;;;;;;3.90;1.55;;;2.00;99.90;;;;;;5022163;28;20073;-74
2022/04/01 07:32:35;;;;;;;2.22;1.20;;;2.00;99.90;;;;;;5066892;28;20044;-73
2022/04/01 07:35:05;;;;;;;4.07;1.35;;;2.00;99.90;;;;;;5043268;28;20045;-74
2022/04/01 07:37:32;;;;;;;3.95;1.33;;;2.10;99.90;;;;;;5069007;28;20060;-74
2022/04/01 07:39:58;;;;;;;3.65;1.60;;;2.10;99.90;;;;;;5031687;28;20045;-75
2022/04/01 07:42:25;;;;;;;4.65;1.55;;;2.70;99.90;;;;;;5037010;28;20051;-73
2022/04/01 07:44:52;;;;;;;2.67;1.20;;;2.20;99.90;;;;;;5058429;28;20128;-74
2022/04/01 07:47:19;;;;;;;2.63;1.27;;;2.20;99.90;;;;;;5062459;28;20118;-73
2022/04/01 07:49:46;;;;;;;4.35;1.60;;;2.30;99.90;;;;;;5062648;28;20052;-74
2022/04/01 07:52:14;;;;;;;2.58;1.40;;;2.40;99.90;;;;;;5045341;28;20040;-74
2022/04/01 07:54:42;;;;;;;4.45;1.65;;;2.30;99.90;;;;;;5075733;28;20068;-74
2022/04/01 07:57:09;;;;;;;2.17;1.30;;;2.40;99.90;;;;;;5025920;28;20045;-73
2022/04/01 07:59:35;;;;;;;2.38;1.40;;;2.60;99.90;;;;;;5058710;28;20045;-75
2022/04/01 08:02:02;;;;;;;3.10;1.75;;;2.40;99.90;;;;;;5074845;28;20045;-74
2022/04/01 08:04:28;;;;;;;2.28;1.40;;;2.40;99.90;;;;;;5056673;28;20081;-74
2022/04/01 08:06:55;;;;;;;2.45;1.45;;;2.50;99.90;;;;;;5070930;28;20338;-74
2022/04/01 08:09:21;;;;;;;5.47;1.80;;;2.50;99.90;;;;;;5062344;28;20057;-75
2022/04/01 08:11:47;;;;;;;4.80;1.70;;;3.10;99.90;;;;;;5056320;28;20045;-73
2022/04/01 08:14:13;;;;;;;3.55;1.80;;;2.60;99.90;;;;;;5075826;28;20048;-72
2022/04/01 08:16:39;;;;;;;2.85;1.60;;;2.90;99.90;;;;;;5038138;28;20044;-74
2022/04/01 08:19:05;;;;;;;4.03;2.42;;;2.70;99.90;;;;;;5052849;28;20045;-74
2022/04/01 08:21:32;;;;;;;3.65;2.10;;;2.70;99.90;;;;;;5035394;28;20079;-74
2022/04/01 08:24:01;;;;;;;4.00;2.13;;;2.70;99.90;;;;;;5046975;28;20059;-73
2022/04/01 08:26:28;;;;;;;3.20;2.30;;;2.80;99.90;;;;;;5059009;28;20045;-73
2022/04/01 08:28:53;;;;;;;5.65;2.40;;;2.70;99.90;;;;;;5067556;28;20041;-74
2022/04/01 08:31:20;;;;;;;3.58;2.03;;;2.70;99.90;;;;;;5065599;28;20060;-74
2022/04/01 08:33:46;;;;;;;5.25;2.30;;;2.70;99.90;;;;;;5047223;28;20617;-74
2022/04/01 08:36:12;;;;;;;4.82;2.35;;;2.70;99.90;;;;;;5065253;28;20048;-74
2022/04/01 08:38:40;;;;;;;4.07;2.22;;;2.70;99.90;;;;;;5046641;28;20100;-75
2022/04/01 08:41:06;;;;;;;4.47;2.20;;;2.80;99.90;;;;;;5048876;28;20044;-73
2022/04/01 08:43:39;;;;;;;5.35;2.42;;;2.80;99.90;;;;;;5049203;28;20064;-74
2022/04/01 08:46:07;;;;;;;4.88;2.10;;;2.80;99.90;;;;;;5065264;28;20107;-76
2022/04/01 08:48:35;;;;;;;4.18;2.58;;;2.90;99.90;;;;;;5033455;28;20064;-73
2022/04/01 08:51:01;;;;;;;4.22;2.88;;;2.80;99.90;;;;;;5060031;28;20072;-74
2022/04/01 08:53:27;;;;;;;4.85;2.70;;;2.80;99.90;;;;;;5047657;28;20102;-73
2022/04/01 08:55:56;;;;;;;3.40;2.70;;;2.70;99.90;;;;;;5069344;28;20049;-74
2022/04/01 08:58:23;;;;;;;4.80;3.10;;;2.70;99.90;;;;;;5030787;28;20076;-74
2022/04/01 09:00:52;;;;;;;5.78;3.10;;;2.70;99.90;;;;;;5035983;28;20044;-74
2022/04/01 09:03:21;;;;;;;6.68;3.70;;;2.70;99.90;;;;;;5035642;28;20077;-74
2022/04/01 09:05:52;;;;;;;5.68;3.30;;;2.90;99.90;;;;;;5063337;28;20052;-72
2022/04/01 09:08:27;;;;;;;6.13;3.75;;;2.70;99.90;;;;;;5048578;28;20041;-74
2022/04/01 09:10:59;;;;;;;4.73;3.10;;;2.70;99.90;;;;;;5039893;28;20103;-73
2022/04/01 09:13:50;;;;;;;6.53;3.08;;;2.70;99.90;;;;;;5077489;28;20158;-73
2022/04/01 09:16:32;;;;;;;5.47;3.38;;;2.70;99.90;;;;;;5051357;28;20049;-72
2022/04/01 09:19:06;;;;;;;5.88;3.50;;;2.80;99.90;;;;;;5065267;28;20385;-75
2022/04/01 09:21:37;;;;;;;7.18;3.70;;;2.80;99.90;;;;;;5039705;28;20393;-73
2022/04/01 09:24:03;;;;;;;7.35;3.80;;;2.90;99.90;;;;;;5072803;28;20053;-74
2022/04/01 09:26:40;;;;;;;7.28;3.75;;;2.90;99.90;;;;;;5037028;28;20049;-73
2022/04/01 09:29:08;;;;;;;5.90;3.75;;;3.00;99.90;;;;;;5035213;28;20467;-75
2022/04/01 09:31:41;;;;;;;5.45;4.03;;;3.10;99.90;;;;;;5048241;28;20075;-76
2022/04/01 09:34:11;;;;;;;5.55;3.90;;;3.20;99.90;;;;;;5091844;28;20048;-76
2022/04/01 09:36:38;;;;;;;5.85;3.83;;;3.80;99.90;;;;;;5069767;28;20045;-73
2022/04/01 09:39:16;;;;;;;6.65;4.38;;;3.30;99.90;;;;;;5045957;28;20045;-74
2022/04/01 09:41:52;;;;;;;5.45;4.00;;;3.30;99.90;;;;;;5066471;28;20051;-74
2022/04/01 09:44:20;;;;;;;7.15;3.75;;;3.30;99.90;;;;;;5073276;28;20634;-73
2022/04/01 09:46:52;;;;;;;6.15;3.67;;;3.30;99.90;;;;;;5056471;28;20045;-73
2022/04/01 09:49:36;;;;;;;6.85;4.32;;;3.30;99.90;;;;;;5038718;28;20113;-74
2022/04/01 09:52:09;;;;;;;7.03;4.07;;;3.40;99.90;;;;;;5058357;28;20052;-74
2022/04/01 09:54:52;;;;;;;5.72;3.92;;;3.40;99.90;;;;;;5061113;28;20048;-73
2022/04/01 09:57:20;;;;;;;8.88;4.30;;;3.50;99.90;;;;;;5039310;28;20124;-74
2022/04/01 09:59:48;;;;;;;7.60;4.30;;;3.50;99.90;;;;;;5045741;28;20044;-74
2022/04/01 10:02:14;;;;;;;6.22;4.05;;;3.60;99.90;;;;;;5058271;28;20056;-73
2022/04/01 10:04:40;;;;;;;6.63;4.90;;;3.60;99.90;;;;;;5024442;28;20052;-74
2022/04/01 10:07:06;;;;;;;6.70;4.57;;;3.70;99.90;;;;;;5039210;28;20105;-73
2022/04/01 10:09:34;;;;;;;6.97;4.45;;;3.70;99.90;;;;;;5075211;28;20036;-76
2022/04/01 10:12:03;;;;;;;8.02;4.30;;;3.70;99.90;;;;;;5053818;28;20412;-74
2022/04/01 10:14:31;;;;;;;6.85;4.82;;;3.60;99.90;;;;;;5075743;28;20049;-74
2022/04/01 10:17:00;;;;;;;7.13;4.25;;;3.70;99.90;;;;;;5040464;28;20049;-74
2022/04/01 10:19:32;;;;;;;8.45;4.70;;;3.70;99.90;;;;;;5058152;28;20147;-73
2022/04/01 10:21:58;;;;;;;8.88;4.55;;;3.80;99.90;;;;;;5065338;28;20043;-74
2022/04/01 10:24:39;;;;;;;7.35;3.78;;;3.80;99.90;;;;;;5020016;28;20490;-74
2022/04/01 10:27:44;;;;;;;7.40;3.88;;;3.90;99.90;;;;;;5056473;28;20037;-72
2022/04/01 10:30:13;;;;;;;8.15;4.03;;;3.80;99.90;;;;;;5071637;28;20077;-73
2022/04/01 10:32:42;;;;;;;7.55;4.30;;;3.80;99.90;;;;;;5038808;28;20068;-74
2022/04/01 10:35:20;;;;;;;4.93;4.00;;;3.80;99.90;;;;;;5056491;28;20056;-74
2022/04/01 10:37:46;;;;;;;8.93;3.85;;;3.80;99.90;;;;;;5086421;28;20471;-74
2022/04/01 10:40:17;;;;;;;6.50;4.20;;;3.80;99.90;;;;;;5037204;28;20044;-74
2022/04/01 10:42:47;;;;;;;5.95;4.40;;;3.70;99.90;;;;;;5058597;28;20056;-73
2022/04/01 10:45:16;;;;;;;5.95;4.30;;;3.70;99.90;;;;;;5067536;28;20069;-74
2022/04/01 10:53:39;;;;;;;5.85;3.10;;;3.80;99.90;;;;;;5055940;28;20053;-72
2022/04/01 10:56:32;;;;;;;5.68;3.10;;;3.80;99.90;;;;;;5043172;28;20033;-72
2022/04/01 10:59:12;;;;;;;6.68;2.90;;;3.80;99.90;;;;;;5040508;28;20144;-73
2022/04/01 11:01:54;;;;;;;4.07;2.42;;;3.80;99.90;;;;;;5065213;28;20191;-72
2022/04/01 11:04:19;;;;;;;4.53;2.80;;;3.90;99.90;;;;;;5044309;28;20141;-73
2022/04/01 11:06:52;;;;;;;3.10;2.33;;;4.00;99.90;;;;;;5064413;28;20460;-73
2022/04/01 11:09:49;;;;;;;4.22;2.53;;;4.00;99.90;;;;;;5057064;28;20064;-73
2022/04/01 11:12:14;;;;;;;3.92;2.20;;;4.00;99.90;;;;;;5039755;28;20057;-75
2022/04/01 11:14:59;;;;;;;4.60;2.30;;;3.90;99.90;;;;;;5048794;28;20064;-74
2022/04/01 11:17:27;;;;;;;4.82;2.20;;;3.90;99.90;;;;;;5060183;28;20052;-74
2022/04/01 11:20:14;;;;;;;4.60;2.45;;;3.80;99.90;;;;;;5030009;28;20044;-74
2022/04/01 11:22:48;;;;;;;4.00;2.35;;;3.80;99.90;;;;;;5060133;28;20083;-73
2022/04/01 11:25:35;;;;;;;3.83;2.20;;;3.80;99.90;;;;;;5052185;28;20052;-73
2022/04/01 11:28:03;;;;;;;4.13;1.85;;;3.80;99.90;;;;;;5051133;28;20053;-74
2022/04/01 11:30:42;;;;;;;6.15;1.98;;;3.70;99.90;;;;;;5042721;28;20518;-73
2022/04/01 11:33:10;;;;;;;4.18;2.25;;;3.70;99.90;;;;;;5058795;28;20113;-74
2022/04/01 11:35:39;;;;;;;2.92;1.70;;;3.70;99.90;;;;;;5075766;28;20592;-73
2022/04/01 11:38:07;;;;;;;4.72;2.17;;;3.80;99.90;;;;;;5042220;28;20079;-73
2022/04/01 11:40:36;;;;;;;3.75;2.20;;;3.70;99.90;;;;;;5046356;28;20028;-73
2022/04/01 11:43:04;;;;;;;3.75;2.08;;;3.70;99.90;;;;;;5046819;28;20037;-73
2022/04/01 11:45:36;;;;;;;3.15;2.00;;;3.70;99.90;;;;;;5045570;28;20404;-72
2022/04/01 11:48:17;;;;;;;4.63;2.30;;;3.70;99.90;;;;;;5063120;28;20082;-73
2022/04/01 11:50:52;;;;;;;3.50;2.08;;;3.70;99.90;;;;;;5035085;28;20191;-74
2022/04/01 11:53:25;;;;;;;3.03;1.80;;;3.70;99.90;;;;;;5058880;28;20041;-73
2022/04/01 11:55:53;;;;;;;4.32;2.50;;;3.80;99.90;;;;;;5079669;28;20052;-73
2022/04/01 11:58:19;;;;;;;4.15;1.80;;;3.80;99.90;;;;;;5078453;28;20055;-72
2022/04/01 12:00:46;;;;;;;3.78;1.70;;;3.90;99.90;;;;;;5046231;28;20114;-73
2022/04/01 12:03:12;;;;;;;2.95;2.33;;;4.00;99.90;;;;;;5055552;28;20044;-72
2022/04/01 12:05:40;;;;;;;3.30;1.80;;;4.00;99.90;;;;;;5056138;28;20064;-72
2022/04/01 12:10:54;;;;;;;3.53;1.70;;;4.10;99.90;;;;;;5043339;28;20049;-73
2022/04/01 12:13:22;;;;;;;4.03;1.70;;;4.10;99.90;;;;;;5069653;28;20087;-73
2022/04/01 12:15:49;;;;;;;6.53;2.08;;;4.20;99.90;;;;;;5074686;28;20044;-75
2022/04/01 12:18:21;;;;;;;3.17;1.80;;;4.20;99.90;;;;;;5085568;28;20053;-73
2022/04/01 12:20:49;;;;;;;2.65;1.35;;;4.20;99.90;;;;;;5061009;28;20052;-73
2022/04/01 12:23:16;;;;;;;3.22;1.52;;;4.20;99.90;;;;;;5075139;28;20048;-73
2022/04/01 12:25:44;;;;;;;4.45;2.10;;;4.30;99.90;;;;;;5066113;28;20052;-74
2022/04/01 12:28:12;;;;;;;4.95;1.60;;;4.30;99.90;;;;;;5059937;28;20581;-75
2022/04/01 12:30:47;;;;;;;2.40;1.50;;;4.30;99.90;;;;;;5027631;28;20037;-75
2022/04/01 12:33:24;;;;;;;4.32;1.70;;;4.30;99.90;;;;;;5041764;28;20056;-72
2022/04/01 12:36:05;;;;;;;4.07;1.50;;;4.30;99.90;;;;;;5068500;28;20501;-74
2022/04/01 12:38:35;;;;;;;3.10;1.70;;;4.30;99.90;;;;;;5043938;28;20095;-74
2022/04/01 12:41:07;;;;;;;3.17;1.70;;;4.40;99.90;;;;;;5030348;28;20052;-73
2022/04/01 12:43:44;;;;;;;3.42;1.40;;;4.40;99.90;;;;;;5047818;28;20045;-73
2022/04/01 12:46:15;;;;;;;3.10;1.30;;;4.40;99.90;;;;;;5042166;28;20041;-74
2022/04/01 12:48:51;;;;;;;5.15;1.70;;;4.50;99.90;;;;;;5057347;28;20080;-73
2022/04/01 12:51:17;;;;;;;3.90;1.58;;;4.60;99.90;;;;;;5049097;28;20503;-73
2022/04/01 12:54:09;;;;;;;3.47;1.77;;;4.60;99.90;;;;;;5044281;28;20041;-74
2022/04/01 12:56:40;;;;;;;2.95;1.40;;;4.60;99.90;;;;;;5052401;28;20040;-73
2022/04/01 12:59:08;;;;;;;5.25;1.75;;;4.60;99.90;;;;;;5066674;28;20086;-73
2022/04/01 13:01:36;;;;;;;3.58;1.50;;;4.50;99.90;;;;;;5041633;28;20045;-74
2022/04/01 13:04:02;;;;;;;2.10;1.23;;;4.60;99.90;;;;;;5074343;28;20033;-73
2022/04/01 13:06:30;;;;;;;3.13;1.42;;;4.50;99.90;;;;;;5055138;28;20072;-73
2022/04/01 13:09:07;;;;;;;2.63;1.55;;;4.50;99.90;;;;;;5074019;28;20086;-73
2022/04/01 13:11:48;;;;;;;2.60;1.40;;;4.50;99.90;;;;;;5056705;28;20053;-75
2022/04/01 13:14:26;;;;;;;4.72;1.42;;;4.60;99.90;;;;;;5040819;28;20562;-74
2022/04/01 13:16:55;;;;;;;3.35;1.48;;;4.50;99.90;;;;;;5040773;28;20131;-75
2022/04/01 13:19:26;;;;;;;3.15;1.50;;;4.50;99.90;;;;;;5040680;28;20049;-73
2022/04/01 13:21:56;;;;;;;2.28;1.33;;;4.50;99.90;;;;;;5045398;28;20068;-74
2022/04/01 13:24:43;;;;;;;2.72;1.20;;;4.40;99.90;;;;;;5060432;28;20052;-74
2022/04/01 13:27:11;;;;;;;;;;;4.40;99.90;;;;;;5021432;28;20136;-72
2022/04/01 13:29:38;;;;;;;3.78;1.48;;;4.40;99.90;;;;;;5049236;28;19921;-73